createdAt,value
2023-04-25T00:00:54.346Z,8.94
2023-04-25T00:03:22.171Z,9.02
2023-04-25T00:05:50.045Z,9.09
2023-04-25T00:08:16.888Z,9.17
2023-04-25T00:10:43.752Z,9.07
2023-04-25T00:13:12.396Z,8.73
2023-04-25T00:15:39.770Z,8.12
2023-04-25T00:18:07.856Z,8.32
2023-04-25T00:20:34.719Z,8.13
2023-04-25T00:23:01.352Z,8.11
2023-04-25T00:25:28.097Z,8.19
2023-04-25T00:27:54.684Z,8.58
2023-04-25T00:30:21.365Z,8.28
2023-04-25T00:32:48.067Z,8.38
2023-04-25T00:35:16.329Z,8.35
2023-04-25T00:37:42.993Z,8.68
2023-04-25T00:40:10.452Z,8.58
2023-04-25T00:42:38.064Z,8.83
2023-04-25T00:45:06.370Z,9.03
2023-04-25T00:47:34.052Z,9.16
2023-04-25T00:50:00.773Z,9.19
2023-04-25T00:52:28.859Z,9.25
2023-04-25T00:54:55.789Z,9.25
2023-04-25T00:57:22.486Z,9.25
2023-04-25T00:59:50.253Z,8.72
2023-04-25T01:02:17.744Z,8.82
2023-04-25T01:04:44.501Z,8.32
2023-04-25T01:16:25.975Z,8.33
2023-04-25T01:18:52.847Z,8.31
2023-04-25T01:24:16.881Z,8.80
2023-04-25T01:26:50.756Z,8.75
2023-04-25T01:29:22.097Z,8.43
2023-04-25T01:31:49.220Z,8.40
2023-04-25T01:34:16.081Z,8.55
2023-04-25T01:36:42.796Z,8.83
2023-04-25T01:39:10.262Z,8.85
2023-04-25T01:41:38.291Z,8.63
2023-04-25T01:44:05.103Z,8.85
2023-04-25T01:46:32.021Z,8.99
2023-04-25T01:48:58.774Z,8.74
2023-04-25T01:51:26.190Z,8.65
2023-04-25T01:53:53.428Z,8.91
2023-04-25T01:56:21.322Z,9.01
2023-04-25T01:58:49.542Z,9.01
2023-04-25T02:01:34.596Z,9.05
2023-04-25T02:04:15.625Z,8.14
2023-04-25T02:06:42.595Z,7.94
2023-04-25T02:09:09.417Z,8.02
2023-04-25T02:11:40.979Z,8.27
2023-04-25T02:14:25.178Z,8.18
2023-04-25T02:17:15.102Z,8.20
2023-04-25T02:19:41.891Z,8.06
2023-04-25T02:22:08.504Z,8.14
2023-04-25T02:24:35.862Z,8.20
2023-04-25T02:27:02.612Z,8.25
2023-04-25T02:29:30.907Z,8.11
2023-04-25T02:31:57.749Z,8.18
2023-04-25T02:34:25.958Z,7.92
2023-04-25T02:36:52.679Z,8.10
2023-04-25T02:39:19.699Z,8.35
2023-04-25T02:41:46.418Z,8.54
2023-04-25T02:44:13.124Z,8.78
2023-04-25T02:46:41.126Z,8.91
2023-04-25T02:49:07.950Z,8.91
2023-04-25T02:51:35.479Z,8.93
2023-04-25T02:54:02.203Z,8.91
2023-04-25T02:56:29.422Z,8.75
2023-04-25T02:58:56.168Z,8.14
2023-04-25T03:01:23.058Z,8.05
2023-04-25T03:03:51.461Z,8.05
2023-04-25T03:06:18.331Z,8.43
2023-04-25T03:08:45.087Z,8.30
2023-04-25T03:11:11.837Z,8.17
2023-04-25T03:13:38.564Z,8.20
2023-04-25T03:16:06.484Z,8.47
2023-04-25T03:18:33.159Z,8.70
2023-04-25T03:21:01.272Z,8.73
2023-04-25T03:23:28.026Z,8.42
2023-04-25T03:25:55.343Z,8.56
2023-04-25T03:28:22.054Z,8.55
2023-04-25T03:30:48.869Z,8.67
2023-04-25T03:33:15.610Z,8.63
2023-04-25T03:35:43.651Z,8.67
2023-04-25T03:38:12.169Z,8.64
2023-04-25T03:40:40.602Z,8.38
2023-04-25T03:43:27.569Z,8.23
2023-04-25T03:46:00.047Z,8.08
2023-04-25T03:48:27.050Z,8.05
2023-04-25T03:50:54.506Z,8.06
2023-04-25T03:53:22.627Z,8.11
2023-04-25T03:56:07.830Z,8.00
2023-04-25T03:58:36.895Z,7.59
2023-04-25T04:01:08.298Z,7.89
2023-04-25T04:03:37.837Z,7.68
2023-04-25T04:06:05.424Z,7.35
2023-04-25T04:08:35.652Z,7.36
2023-04-25T04:11:03.563Z,7.39
2023-04-25T04:13:30.825Z,7.34
2023-04-25T04:15:58.523Z,7.47
2023-04-25T04:18:25.397Z,7.78
2023-04-25T04:20:53.090Z,8.00
2023-04-25T04:23:20.631Z,8.09
2023-04-25T04:25:49.223Z,8.15
2023-04-25T04:28:34.154Z,8.13
2023-04-25T04:31:39.379Z,8.19
2023-04-25T04:34:07.130Z,8.25
2023-04-25T04:36:35.411Z,8.30
2023-04-25T04:39:03.108Z,8.34
2023-04-25T04:41:40.870Z,8.34
2023-04-25T04:44:31.724Z,8.24
2023-04-25T04:47:24.797Z,8.20
2023-04-25T04:50:14.183Z,8.17
2023-04-25T04:53:14.441Z,8.30
2023-04-25T04:55:42.267Z,8.09
2023-04-25T04:58:24.189Z,7.88
2023-04-25T05:01:23.373Z,7.92
2023-04-25T05:04:19.244Z,8.07
2023-04-25T05:06:57.777Z,8.18
2023-04-25T05:09:26.732Z,7.78
2023-04-25T05:12:12.272Z,7.65
2023-04-25T05:14:59.475Z,7.63
2023-04-25T05:17:52.229Z,7.66
2023-04-25T05:20:28.341Z,7.60
2023-04-25T05:23:01.168Z,7.59
2023-04-25T05:25:54.166Z,7.49
2023-04-25T05:28:31.565Z,7.42
2023-04-25T05:31:19.949Z,7.57
2023-04-25T05:33:52.530Z,7.56
2023-04-25T05:36:20.805Z,7.50
2023-04-25T05:38:47.806Z,7.40
2023-04-25T05:41:14.492Z,7.43
2023-04-25T05:44:04.242Z,7.71
2023-04-25T05:46:32.326Z,7.70
2023-04-25T05:49:19.495Z,7.98
2023-04-25T05:51:58.287Z,8.01
2023-04-25T05:54:43.607Z,7.95
2023-04-25T05:57:19.109Z,8.24
2023-04-25T05:59:45.923Z,8.09
2023-04-25T06:02:15.461Z,8.09
2023-04-25T06:04:43.046Z,8.18
2023-04-25T06:07:09.796Z,8.36
2023-04-25T06:09:37.035Z,8.24
2023-04-25T06:12:04.153Z,8.32
2023-04-25T06:14:31.533Z,8.16
2023-04-25T06:16:58.501Z,8.25
2023-04-25T06:19:28.305Z,8.32
2023-04-25T06:21:55.053Z,8.71
2023-04-25T06:24:21.899Z,8.30
2023-04-25T06:26:48.662Z,8.24
2023-04-25T06:29:15.902Z,8.39
2023-04-25T06:31:42.832Z,8.39
2023-04-25T06:34:10.310Z,8.75
2023-04-25T06:36:42.527Z,8.53
2023-04-25T06:39:12.331Z,8.87
2023-04-25T06:41:39.023Z,8.90
2023-04-25T06:44:08.044Z,9.21
2023-04-25T06:46:49.721Z,9.13
2023-04-25T06:49:16.524Z,9.03
2023-04-25T06:51:44.904Z,8.81
2023-04-25T06:54:11.583Z,9.16
2023-04-25T06:56:45.764Z,9.34
2023-04-25T06:59:14.409Z,9.38
2023-04-25T07:01:42.698Z,9.48
2023-04-25T07:04:15.192Z,9.29
2023-04-25T07:06:50.364Z,9.22
2023-04-25T07:09:21.348Z,9.12
2023-04-25T07:11:49.734Z,9.34
2023-04-25T07:14:16.442Z,9.54
2023-04-25T07:16:43.277Z,9.08
2023-04-25T07:19:11.001Z,9.43
2023-04-25T07:21:38.134Z,9.48
2023-04-25T07:24:07.765Z,9.65
2023-04-25T07:26:39.208Z,9.89
2023-04-25T07:29:24.755Z,9.67
2023-04-25T07:31:51.666Z,9.21
2023-04-25T07:34:20.378Z,9.46
2023-04-25T07:36:47.116Z,9.72
2023-04-25T07:39:15.667Z,9.73
2023-04-25T07:41:42.620Z,9.94
2023-04-25T07:44:13.969Z,10.28
2023-04-25T07:46:41.049Z,10.22
2023-04-25T07:49:08.304Z,10.21
2023-04-25T07:51:35.599Z,10.33
2023-04-25T07:54:07.460Z,10.57
2023-04-25T07:56:49.594Z,10.83
2023-04-25T07:59:19.455Z,11.03
2023-04-25T08:01:46.477Z,11.21
2023-04-25T08:04:13.561Z,11.23
2023-04-25T08:06:49.958Z,11.51
2023-04-25T08:09:22.877Z,11.78
2023-04-25T08:11:51.047Z,12.03
2023-04-25T08:14:22.047Z,12.09
2023-04-25T08:16:49.316Z,12.25
2023-04-25T08:19:16.548Z,12.18
2023-04-25T08:21:43.557Z,12.18
2023-04-25T08:24:15.304Z,12.34
2023-04-25T08:26:42.287Z,12.70
2023-04-25T08:29:12.920Z,12.97
2023-04-25T08:31:41.734Z,13.21
2023-04-25T08:34:09.120Z,13.67
2023-04-25T08:36:48.414Z,13.91
2023-04-25T08:39:23.049Z,13.96
2023-04-25T08:42:19.257Z,13.92
2023-04-25T08:44:48.416Z,14.02
2023-04-25T08:47:15.118Z,14.00
2023-04-25T08:49:47.699Z,14.26
2023-04-25T08:52:15.211Z,14.63
2023-04-25T08:54:45.373Z,14.74
2023-04-25T08:57:13.298Z,15.10
2023-04-25T08:59:44.074Z,15.86
2023-04-25T09:02:15.706Z,15.69
2023-04-25T09:04:43.802Z,15.25
2023-04-25T09:07:10.890Z,15.08
2023-04-25T09:09:38.719Z,15.40
2023-04-25T09:12:06.193Z,15.56
2023-04-25T09:14:33.191Z,15.46
2023-04-25T09:17:04.618Z,15.54
2023-04-25T09:19:46.405Z,15.98
2023-04-25T09:22:19.417Z,16.99
2023-04-25T09:24:51.029Z,17.68
2023-04-25T09:27:19.932Z,17.49
2023-04-25T09:29:48.635Z,16.54
2023-04-25T09:32:18.129Z,14.47
2023-04-25T09:34:49.360Z,13.17
2023-04-25T09:37:21.686Z,13.26
2023-04-25T09:40:14.480Z,13.46
2023-04-25T09:42:58.907Z,13.73
2023-04-25T09:45:26.041Z,13.75
2023-04-25T09:47:56.429Z,13.93
2023-04-25T09:50:27.011Z,13.96
2023-04-25T09:53:03.795Z,14.04
2023-04-25T09:55:35.140Z,14.86
2023-04-25T09:58:04.186Z,15.15
2023-04-25T10:00:31.844Z,16.01
2023-04-25T10:03:06.850Z,16.28
2023-04-25T10:06:00.060Z,16.92
2023-04-25T10:08:30.430Z,16.80
2023-04-25T10:10:57.182Z,16.84
2023-04-25T10:13:24.382Z,17.49
2023-04-25T10:15:52.457Z,17.86
2023-04-25T10:18:21.014Z,17.67
2023-04-25T10:20:47.706Z,17.63
2023-04-25T10:23:16.482Z,16.71
2023-04-25T10:25:43.478Z,17.65
2023-04-25T10:28:10.161Z,17.22
2023-04-25T10:30:36.840Z,16.18
2023-04-25T10:33:17.064Z,15.80
2023-04-25T10:35:46.063Z,16.03
2023-04-25T10:38:15.379Z,15.06
2023-04-25T10:41:03.546Z,15.18
2023-04-25T10:43:40.445Z,14.66
2023-04-25T10:46:20.410Z,14.22
2023-04-25T10:48:51.092Z,14.57
2023-04-25T10:51:18.815Z,14.77
2023-04-25T10:53:46.073Z,16.26
2023-04-25T10:56:17.561Z,15.81
2023-04-25T10:58:44.590Z,15.35
2023-04-25T11:01:11.561Z,14.39
2023-04-25T11:03:39.810Z,14.76
2023-04-25T11:06:08.356Z,15.48
2023-04-25T11:08:41.095Z,16.13
2023-04-25T11:11:09.366Z,16.37
2023-04-25T11:13:37.402Z,16.43
2023-04-25T11:16:12.593Z,16.56
2023-04-25T11:18:41.994Z,16.85
2023-04-25T11:21:08.662Z,17.31
2023-04-25T11:23:35.397Z,17.65
2023-04-25T11:26:02.440Z,18.68
2023-04-25T11:28:29.147Z,19.51
2023-04-25T11:30:57.190Z,18.56
2023-04-25T11:33:26.705Z,19.03
2023-04-25T11:35:54.438Z,19.67
2023-04-25T11:38:22.589Z,19.20
2023-04-25T11:40:53.598Z,17.66
2023-04-25T11:43:21.813Z,17.72
2023-04-25T11:45:49.136Z,16.83
2023-04-25T11:48:17.618Z,16.34
2023-04-25T11:50:44.730Z,15.61
2023-04-25T11:53:11.782Z,15.35
2023-04-25T11:55:38.859Z,15.37
2023-04-25T11:58:05.852Z,15.46
2023-04-25T12:00:32.939Z,15.57
2023-04-25T12:03:00.125Z,15.57
2023-04-25T12:05:32.591Z,15.72
2023-04-25T12:08:13.432Z,15.62
2023-04-25T12:10:41.593Z,16.25
2023-04-25T12:13:21.470Z,16.27
2023-04-25T12:15:48.504Z,15.69
2023-04-25T12:18:15.586Z,15.36
2023-04-25T12:20:44.111Z,15.17
2023-04-25T12:23:12.068Z,15.22
2023-04-25T12:25:39.596Z,15.35
2023-04-25T12:28:13.348Z,15.48
2023-04-25T12:30:56.119Z,15.25
2023-04-25T12:33:23.013Z,14.98
2023-04-25T12:35:51.111Z,15.17
2023-04-25T12:38:24.338Z,15.07
2023-04-25T12:40:51.090Z,15.36
2023-04-25T12:43:18.544Z,15.85
2023-04-25T12:45:45.608Z,16.19
2023-04-25T12:48:12.509Z,16.39
2023-04-25T12:50:39.315Z,16.17
2023-04-25T12:53:07.501Z,15.98
2023-04-25T12:55:34.250Z,15.48
2023-04-25T12:58:00.953Z,14.74
2023-04-25T13:00:27.762Z,14.09
2023-04-25T13:02:54.696Z,13.68
2023-04-25T13:05:21.503Z,13.95
2023-04-25T13:07:48.142Z,14.47
2023-04-25T13:10:16.660Z,14.77
2023-04-25T13:12:43.317Z,15.03
2023-04-25T13:15:12.228Z,15.56
2023-04-25T13:17:39.319Z,15.65
2023-04-25T13:20:09.930Z,15.14
2023-04-25T13:22:38.008Z,14.62
2023-04-25T13:25:05.085Z,13.79
2023-04-25T13:27:34.901Z,13.07
2023-04-25T13:30:02.390Z,12.52
2023-04-25T13:32:29.216Z,12.06
2023-04-25T13:34:57.010Z,11.72
2023-04-25T13:37:25.194Z,11.43
2023-04-25T13:39:52.137Z,11.32
2023-04-25T13:42:19.060Z,11.40
2023-04-25T13:44:47.362Z,11.55
2023-04-25T13:47:16.285Z,12.16
2023-04-25T13:49:42.985Z,12.88
2023-04-25T13:52:09.686Z,13.72
2023-04-25T13:54:36.392Z,14.46
2023-04-25T13:57:03.260Z,14.45
2023-04-25T13:59:30.060Z,13.92
2023-04-25T14:01:58.171Z,13.71
2023-04-25T14:04:25.032Z,13.86
2023-04-25T14:06:52.178Z,13.64
2023-04-25T14:09:20.645Z,13.67
2023-04-25T14:11:47.386Z,13.61
2023-04-25T14:14:16.701Z,13.59
2023-04-25T14:16:43.449Z,13.41
2023-04-25T14:19:11.555Z,13.22
2023-04-25T14:21:38.330Z,12.96
2023-04-25T14:24:05.949Z,12.85
2023-04-25T14:26:34.172Z,12.84
2023-04-25T14:29:00.896Z,12.81
2023-04-25T14:31:27.767Z,12.99
2023-04-25T14:33:56.293Z,13.29
2023-04-25T14:36:27.444Z,13.52
2023-04-25T14:38:54.084Z,13.29
2023-04-25T14:41:20.729Z,13.17
2023-04-25T14:43:47.399Z,13.26
2023-04-25T14:46:14.184Z,13.16
2023-04-25T14:48:41.032Z,12.95
2023-04-25T14:51:08.011Z,12.80
2023-04-25T14:53:35.976Z,12.75
2023-04-25T14:56:02.662Z,12.81
2023-04-25T14:58:29.372Z,12.85
2023-04-25T15:00:56.213Z,13.01
2023-04-25T15:03:23.165Z,13.00
2023-04-25T15:05:50.037Z,13.00
2023-04-25T15:08:16.688Z,13.12
2023-04-25T15:10:44.816Z,13.25
2023-04-25T15:13:11.691Z,13.34
2023-04-25T15:15:38.414Z,13.26
2023-04-25T15:18:05.401Z,12.97
2023-04-25T15:20:32.403Z,13.04
2023-04-25T15:22:59.093Z,13.07
2023-04-25T15:25:26.471Z,13.06
2023-04-25T15:27:54.542Z,13.02
2023-04-25T15:30:21.691Z,13.18
2023-04-25T15:32:48.760Z,13.15
2023-04-25T15:35:16.239Z,13.19
2023-04-25T15:37:43.143Z,13.13
2023-04-25T15:40:12.155Z,13.15
2023-04-25T15:42:39.190Z,13.18
2023-04-25T15:45:08.394Z,13.28
2023-04-25T15:47:35.942Z,13.11
2023-04-25T15:50:04.994Z,12.98
2023-04-25T15:52:31.811Z,12.67
2023-04-25T15:54:59.006Z,12.40
2023-04-25T15:57:25.976Z,11.95
2023-04-25T15:59:53.052Z,11.67
2023-04-25T16:02:21.088Z,11.51
2023-04-25T16:04:48.048Z,11.52
2023-04-25T16:07:15.193Z,11.58
2023-04-25T16:09:41.944Z,11.53
2023-04-25T16:12:09.973Z,11.56
2023-04-25T16:14:36.969Z,11.53
2023-04-25T16:17:03.916Z,11.58
2023-04-25T16:19:32.610Z,11.70
2023-04-25T16:21:59.789Z,11.85
2023-04-25T16:24:26.554Z,11.86
2023-04-25T16:26:53.357Z,11.83
2023-04-25T16:29:20.037Z,11.78
2023-04-25T16:31:47.585Z,11.67
2023-04-25T16:34:15.414Z,11.54
2023-04-25T16:36:43.557Z,11.47
2023-04-25T16:39:10.213Z,11.20
2023-04-25T16:41:37.142Z,11.06
2023-04-25T16:44:06.734Z,11.00
2023-04-25T16:46:33.445Z,10.93
2023-04-25T16:51:48.091Z,10.68
2023-04-25T16:54:14.737Z,10.60
2023-04-25T16:56:41.798Z,10.48
2023-04-25T16:59:08.638Z,10.49
2023-04-25T17:01:37.250Z,10.59
2023-04-25T17:04:04.073Z,10.57
2023-04-25T17:06:31.020Z,10.46
2023-04-25T17:08:59.113Z,10.37
2023-04-25T17:11:26.367Z,10.37
2023-04-25T17:13:53.275Z,10.24
2023-04-25T17:16:23.438Z,10.20
2023-04-25T17:18:53.246Z,10.23
2023-04-25T17:21:21.218Z,10.32
2023-04-25T17:23:48.113Z,10.46
2023-04-25T17:26:17.097Z,10.55
2023-04-25T17:28:49.702Z,10.58
2023-04-25T17:31:17.457Z,10.64
2023-04-25T17:33:44.164Z,10.77
2023-04-25T17:36:11.108Z,10.84
2023-04-25T17:38:39.055Z,10.88
2023-04-25T17:41:05.940Z,10.93
2023-04-25T17:46:21.542Z,10.97
2023-04-25T17:48:48.675Z,10.94
2023-04-25T17:51:15.613Z,10.92
2023-04-25T17:53:42.395Z,10.88
2023-04-25T17:56:25.359Z,10.79
2023-04-25T17:58:55.195Z,10.70
2023-04-25T18:01:22.276Z,10.65
2023-04-25T18:03:49.973Z,10.63
2023-04-25T18:06:18.144Z,10.65
2023-04-25T18:08:45.151Z,10.65
2023-04-25T18:11:12.359Z,10.62
2023-04-25T18:13:40.219Z,10.54
2023-04-25T18:16:08.590Z,10.50
2023-04-25T18:18:55.369Z,10.42
2023-04-25T18:21:22.342Z,10.43
2023-04-25T18:23:49.299Z,10.42
2023-04-25T18:26:16.437Z,10.45
2023-04-25T18:28:43.241Z,10.44
2023-04-25T18:31:11.743Z,10.45
2023-04-25T18:33:38.821Z,10.46
2023-04-25T18:36:05.957Z,10.43
2023-04-25T18:38:36.080Z,10.43
2023-04-25T18:41:21.089Z,10.39
2023-04-25T18:43:52.241Z,10.39
2023-04-25T18:46:22.745Z,10.35
2023-04-25T18:48:51.623Z,10.03
2023-04-25T18:51:18.808Z,10.14
2023-04-25T18:53:46.318Z,10.15
2023-04-25T18:56:14.728Z,9.98
2023-04-25T18:58:41.646Z,10.10
2023-04-25T19:01:09.280Z,10.18
2023-04-25T19:03:38.260Z,10.24
2023-04-25T19:06:05.277Z,10.26
2023-04-25T19:08:33.126Z,10.20
2023-04-25T19:11:07.595Z,10.17
2023-04-25T19:13:41.486Z,10.12
2023-04-25T19:16:08.991Z,9.93
2023-04-25T19:18:37.398Z,9.47
2023-04-25T19:21:06.629Z,9.28
2023-04-25T19:23:33.414Z,9.54
2023-04-25T19:26:00.295Z,9.32
2023-04-25T19:28:27.476Z,9.37
2023-04-25T19:30:54.152Z,9.41
2023-04-25T19:33:21.556Z,9.12
2023-04-25T19:35:49.565Z,9.05
2023-04-25T19:38:17.077Z,8.81
2023-04-25T19:40:44.045Z,8.90
2023-04-25T19:43:11.238Z,9.22
2023-04-25T19:45:37.845Z,9.38
2023-04-25T19:48:05.090Z,9.39
2023-04-25T19:50:32.612Z,9.28
2023-04-25T19:53:01.378Z,9.21
2023-04-25T19:55:28.580Z,9.26
2023-04-25T19:57:55.507Z,9.20
2023-04-25T20:00:22.552Z,9.10
2023-04-25T20:02:49.626Z,8.74
2023-04-25T20:05:17.252Z,8.52
2023-04-25T20:07:44.598Z,8.24
2023-04-25T20:10:14.139Z,8.30
2023-04-25T20:12:41.079Z,8.14
2023-04-25T20:15:09.638Z,7.77
2023-04-25T20:17:37.043Z,7.48
2023-04-25T20:20:06.309Z,7.47
2023-04-25T20:22:37.661Z,7.38
2023-04-25T20:25:04.735Z,7.46
2023-04-25T20:27:33.186Z,7.48
2023-04-25T20:30:04.241Z,7.67
2023-04-25T20:32:32.263Z,7.96
2023-04-25T20:34:58.909Z,7.74
2023-04-25T20:37:26.631Z,7.75
2023-04-25T20:39:53.267Z,7.57
2023-04-25T20:42:20.032Z,7.31
2023-04-25T20:44:49.239Z,7.27
2023-04-25T20:47:16.693Z,7.21
2023-04-25T20:49:43.330Z,7.19
2023-04-25T20:52:09.991Z,7.11
2023-04-25T20:54:37.518Z,7.33
2023-04-25T20:57:04.396Z,7.50
2023-04-25T20:59:31.205Z,7.48
2023-04-25T21:01:59.372Z,7.67
2023-04-25T21:04:26.288Z,7.89
2023-04-25T21:06:53.016Z,7.99
2023-04-25T21:09:19.838Z,7.52
2023-04-25T21:11:46.467Z,7.24
2023-04-25T21:14:13.249Z,7.15
2023-04-25T21:16:40.906Z,7.02
2023-04-25T21:19:09.591Z,7.03
2023-04-25T21:21:36.518Z,7.08
2023-04-25T21:24:03.755Z,7.04
2023-04-25T21:26:31.311Z,7.08
2023-04-25T21:28:57.990Z,7.34
2023-04-25T21:31:25.189Z,7.48
2023-04-25T21:33:51.905Z,7.47
2023-04-25T21:36:19.998Z,7.49
2023-04-25T21:38:46.750Z,7.50
2023-04-25T21:41:13.460Z,7.47
2023-04-25T21:43:40.066Z,6.98
2023-04-25T21:46:22.421Z,6.59
2023-04-25T21:48:50.739Z,6.29
2023-04-25T21:51:17.859Z,6.29
2023-04-25T21:53:45.895Z,6.52
2023-04-25T21:56:12.559Z,6.71
2023-04-25T21:58:39.239Z,6.42
2023-04-25T22:01:06.018Z,6.29
2023-04-25T22:03:33.087Z,6.45
2023-04-25T22:05:59.957Z,6.46
2023-04-25T22:08:26.826Z,6.51
2023-04-25T22:10:57.948Z,6.47
2023-04-25T22:13:24.570Z,6.26
2023-04-25T22:15:51.215Z,6.14
2023-04-25T22:18:19.797Z,6.17
2023-04-25T22:20:46.578Z,5.71
2023-04-25T22:23:13.825Z,5.81
2023-04-25T22:25:40.533Z,5.59
2023-04-25T22:28:08.722Z,5.19
2023-04-25T22:30:35.369Z,5.14
2023-04-25T22:33:02.176Z,5.42
2023-04-25T22:35:29.133Z,5.63
2023-04-25T22:37:55.842Z,5.69
2023-04-25T22:40:22.708Z,5.73
2023-04-25T22:42:49.486Z,5.77
2023-04-25T22:45:17.600Z,5.77
2023-04-25T22:47:44.395Z,5.74
2023-04-25T22:50:16.581Z,5.70
2023-04-25T22:52:43.646Z,5.59
2023-04-25T22:55:11.146Z,5.43
2023-04-25T22:57:40.689Z,5.16
2023-04-25T23:00:19.681Z,4.66
2023-04-25T23:02:48.865Z,4.55
2023-04-25T23:05:15.849Z,4.76
2023-04-25T23:07:43.690Z,4.96
2023-04-25T23:10:10.762Z,5.05
2023-04-25T23:12:37.831Z,5.05
2023-04-25T23:15:05.420Z,5.00
2023-04-25T23:17:32.135Z,4.72
2023-04-25T23:20:00.227Z,4.59
2023-04-25T23:22:27.026Z,4.83
2023-04-25T23:24:53.717Z,4.86
2023-04-25T23:27:20.343Z,4.64
2023-04-25T23:29:53.270Z,4.35
2023-04-25T23:32:19.969Z,4.42
2023-04-25T23:34:46.631Z,4.54
2023-04-25T23:37:14.760Z,4.65
2023-04-25T23:39:41.406Z,4.65
2023-04-25T23:42:08.083Z,4.22
2023-04-25T23:44:34.724Z,3.94
2023-04-25T23:47:01.553Z,4.02
2023-04-25T23:49:28.140Z,4.16
2023-04-25T23:51:54.854Z,4.29
2023-04-25T23:54:22.843Z,4.09
2023-04-25T23:56:49.598Z,4.00
2023-04-25T23:59:16.294Z,4.05
